Strathcona, Minnesota
Current Conditions -  °F | °C
As of 3:34 PM on Wednesday 26 Nov 2014 (Local Time) from KROX Reporting Station
Clear Clear  
Wind Chill: -10°   Ceiling: Unl
Heat Index:   Visibility: 10mi
Dew Point: -8°   Wind: 8mph
Humidity: 61%   Direction: 320°NW
Pressure: 30.43"   Gusts: NA
Location:  48.55°N, 96.17°W
Report Text: KROX 262134Z AUTO 32007KT 10SM CLR M16/M22 A3043 RMK AO2
Loading
Personal Weather Stations






























Interactive Weather Map New forecast layout! Learn more

10-Day Weather Forecast

Advertisements
Track Severe Weather on mobile